Time;durP1;ratioP1;P1;durP2;ratioP2;P2;SDS_P1;SDS_P2;PMS_P1;PMS_P2;Temp;Humidity;BMP_temperature;BMP_pressure;BME280_temperature;BME280_humidity;BME280_pressure;Samples;Min_cycle;Max_cycle;Signal;HPM_P1;HPM_P2
2023/08/25 00:01:23;;;;;;;15.18;9.10;;;19.60;99.90;;;;;;5036431;28;20087;-72
2023/08/25 00:03:48;;;;;;;13.98;8.68;;;19.70;99.90;;;;;;5039261;28;20049;-71
2023/08/25 00:06:14;;;;;;;16.95;8.20;;;19.60;99.90;;;;;;5036645;28;20029;-72
2023/08/25 00:08:40;;;;;;;16.33;8.63;;;19.60;99.90;;;;;;5029031;28;20556;-73
2023/08/25 00:11:05;;;;;;;14.82;8.02;;;19.60;99.90;;;;;;5035220;28;20030;-72
2023/08/25 00:13:35;;;;;;;11.73;7.85;;;19.60;99.90;;;;;;5038373;28;20043;-72
2023/08/25 00:16:01;;;;;;;15.17;8.83;;;19.50;99.90;;;;;;5037441;28;20034;-72
2023/08/25 00:18:27;;;;;;;14.15;8.65;;;19.40;99.90;;;;;;5039214;28;20044;-73
2023/08/25 00:20:52;;;;;;;14.10;8.50;;;19.50;99.90;;;;;;5035868;28;20501;-74
2023/08/25 00:23:18;;;;;;;19.45;9.40;;;19.40;99.90;;;;;;5040245;28;20033;-72
2023/08/25 00:25:44;;;;;;;15.85;8.82;;;19.40;99.90;;;;;;5026276;28;20112;-72
2023/08/25 00:28:10;;;;;;;17.30;8.43;;;19.40;99.90;;;;;;5038738;28;20075;-73
2023/08/25 00:30:35;;;;;;;18.50;9.43;;;19.40;99.90;;;;;;5027079;28;20037;-74
2023/08/25 00:33:01;;;;;;;13.85;8.60;;;19.30;99.90;;;;;;5027918;28;20116;-73
2023/08/25 00:35:27;;;;;;;16.60;10.05;;;19.30;99.90;;;;;;5028547;28;20033;-72
2023/08/25 00:37:52;;;;;;;19.08;9.70;;;19.30;99.90;;;;;;5039183;28;20477;-73
2023/08/25 00:40:18;;;;;;;17.75;9.75;;;19.30;99.90;;;;;;5036118;28;20033;-72
2023/08/25 00:42:44;;;;;;;16.58;10.55;;;19.30;99.90;;;;;;5054767;28;20561;-71
2023/08/25 00:45:10;;;;;;;18.05;10.18;;;19.30;99.90;;;;;;5021793;28;20095;-73
2023/08/25 00:47:36;;;;;;;16.48;10.32;;;19.20;99.90;;;;;;5041521;28;20045;-74
2023/08/25 00:50:02;;;;;;;22.17;12.00;;;19.20;99.90;;;;;;5040737;28;20053;-73
2023/08/25 00:52:28;;;;;;;19.95;11.40;;;19.20;99.90;;;;;;5040935;28;20405;-72
2023/08/25 00:54:55;;;;;;;21.65;11.23;;;19.10;99.90;;;;;;5041309;28;20037;-73
2023/08/25 00:57:21;;;;;;;20.67;11.25;;;19.10;99.90;;;;;;5040072;28;20451;-72
2023/08/25 00:59:48;;;;;;;24.65;14.05;;;19.10;99.90;;;;;;5038848;28;20486;-71
2023/08/25 01:02:14;;;;;;;21.60;12.82;;;19.10;99.90;;;;;;5043294;28;20037;-72
2023/08/25 01:04:40;;;;;;;22.58;11.80;;;19.10;99.90;;;;;;5039475;28;20109;-72
2023/08/25 01:07:05;;;;;;;20.35;11.90;;;19.00;99.90;;;;;;5041544;28;20049;-72
2023/08/25 01:09:33;;;;;;;23.08;12.68;;;19.10;99.90;;;;;;5030454;28;20552;-73
2023/08/25 01:12:27;;;;;;;23.67;13.50;;;19.10;99.90;;;;;;5040349;28;20037;-72
2023/08/25 01:15:07;;;;;;;25.38;12.55;;;19.10;99.90;;;;;;5040027;28;20397;-72
2023/08/25 01:17:48;;;;;;;25.50;13.50;;;19.10;99.90;;;;;;5040271;28;20033;-73
2023/08/25 01:20:15;;;;;;;26.65;14.25;;;19.10;99.90;;;;;;5045319;28;20040;-72
2023/08/25 01:23:11;;;;;;;25.00;13.57;;;19.00;99.90;;;;;;5048922;28;20161;-72
2023/08/25 01:25:37;;;;;;;28.10;14.88;;;19.00;99.90;;;;;;5057231;28;20045;-72
2023/08/25 01:28:04;;;;;;;27.13;15.15;;;19.00;99.90;;;;;;5056391;28;20037;-72
2023/08/25 01:30:34;;;;;;;27.02;14.20;;;19.00;99.90;;;;;;5038214;28;20087;-72
2023/08/25 01:33:01;;;;;;;29.95;14.80;;;19.00;99.90;;;;;;5027413;28;20465;-72
2023/08/25 01:35:36;;;;;;;24.65;14.02;;;18.90;99.90;;;;;;5032212;28;20094;-72
2023/08/25 01:38:16;;;;;;;39.42;16.60;;;18.90;99.90;;;;;;5054797;28;20555;-73
2023/08/25 01:40:49;;;;;;;30.25;16.40;;;18.90;99.90;;;;;;5038066;28;20525;-72
2023/08/25 01:43:18;;;;;;;28.75;14.77;;;18.90;99.90;;;;;;5038354;28;20090;-72
2023/08/25 01:45:48;;;;;;;26.85;15.13;;;18.90;99.90;;;;;;5031921;28;20087;-72
2023/08/25 01:48:15;;;;;;;30.93;16.03;;;18.90;99.90;;;;;;5038704;28;20034;-74
2023/08/25 01:50:40;;;;;;;28.67;14.95;;;19.00;99.90;;;;;;5038193;28;20109;-72
2023/08/25 01:53:08;;;;;;;31.42;16.20;;;18.90;99.90;;;;;;5041170;28;20073;-72
2023/08/25 01:55:34;;;;;;;36.15;18.08;;;18.90;99.90;;;;;;5031572;28;20095;-72
2023/08/25 01:58:02;;;;;;;33.17;16.20;;;18.90;99.90;;;;;;5056478;28;20026;-72
2023/08/25 02:00:27;;;;;;;36.55;17.10;;;18.90;99.90;;;;;;5041221;28;20504;-72
2023/08/25 02:02:53;;;;;;;36.97;16.65;;;19.00;99.90;;;;;;5022607;28;20034;-72
2023/08/25 02:05:18;;;;;;;35.08;16.58;;;18.90;99.90;;;;;;5040580;28;20547;-72
2023/08/25 02:07:44;;;;;;;36.33;16.90;;;18.90;99.90;;;;;;5038063;28;20037;-72
2023/08/25 02:10:10;;;;;;;30.17;15.77;;;18.90;99.90;;;;;;5026260;28;20120;-73
2023/08/25 02:12:35;;;;;;;31.27;16.63;;;18.90;99.90;;;;;;5037695;28;20075;-72
2023/08/25 02:15:01;;;;;;;32.03;16.63;;;18.90;99.90;;;;;;5029194;28;20037;-73
2023/08/25 02:17:26;;;;;;;36.78;19.10;;;18.90;99.90;;;;;;5040088;28;20124;-73
2023/08/25 02:19:52;;;;;;;33.22;16.73;;;18.90;99.90;;;;;;5028874;28;20033;-72
2023/08/25 02:22:17;;;;;;;34.72;17.75;;;18.90;99.90;;;;;;5029172;28;20091;-74
2023/08/25 02:24:43;;;;;;;41.38;19.38;;;19.00;99.90;;;;;;5040961;28;20589;-72
2023/08/25 02:27:08;;;;;;;35.15;17.35;;;19.00;99.90;;;;;;5038000;28;20038;-72
2023/08/25 02:29:34;;;;;;;39.22;18.77;;;19.00;99.90;;;;;;5040248;28;20032;-71
2023/08/25 02:32:00;;;;;;;44.17;19.77;;;19.10;99.90;;;;;;5037849;28;20489;-72
2023/08/25 02:34:25;;;;;;;102.20;23.95;;;19.10;99.90;;;;;;5039536;28;20052;-73
2023/08/25 02:36:51;;;;;;;74.22;22.08;;;19.10;99.90;;;;;;5038776;28;20447;-72
2023/08/25 02:39:16;;;;;;;57.15;19.27;;;19.10;99.90;;;;;;5038561;28;20061;-73
2023/08/25 02:41:42;;;;;;;42.58;18.60;;;19.10;99.90;;;;;;5037283;28;20026;-72
2023/08/25 02:44:07;;;;;;;41.78;19.73;;;19.10;99.90;;;;;;5026087;28;20091;-72
2023/08/25 02:46:33;;;;;;;52.10;20.67;;;19.10;99.90;;;;;;5037530;28;20533;-74
2023/08/25 02:48:58;;;;;;;56.40;20.60;;;19.10;99.90;;;;;;5037124;28;20048;-73
2023/08/25 02:51:24;;;;;;;52.42;22.70;;;19.20;99.90;;;;;;5021045;28;20030;-72
2023/08/25 02:53:49;;;;;;;45.38;19.48;;;19.20;99.90;;;;;;5036859;28;20499;-73
2023/08/25 02:56:15;;;;;;;49.88;20.65;;;19.20;99.90;;;;;;5040041;28;20037;-72
2023/08/25 02:58:40;;;;;;;47.15;20.25;;;19.20;99.90;;;;;;5026203;28;20037;-72
2023/08/25 03:01:15;;;;;;;47.72;21.25;;;19.20;99.90;;;;;;5038740;28;20545;-72
2023/08/25 03:03:41;;;;;;;50.40;20.08;;;19.20;99.90;;;;;;5036792;28;20030;-74
2023/08/25 03:06:06;;;;;;;49.88;20.95;;;19.20;99.90;;;;;;5030103;28;20043;-73
2023/08/25 03:08:32;;;;;;;50.25;21.40;;;19.20;99.90;;;;;;5036854;28;20025;-73
2023/08/25 03:11:01;;;;;;;55.00;21.02;;;19.20;99.90;;;;;;5038929;28;20558;-72
2023/08/25 03:13:27;;;;;;;60.97;21.25;;;19.20;99.90;;;;;;5037945;28;20075;-72
2023/08/25 03:15:54;;;;;;;47.30;19.98;;;19.20;99.90;;;;;;5037849;28;20049;-72
2023/08/25 03:18:19;;;;;;;43.78;18.80;;;19.20;99.90;;;;;;5026363;28;20510;-73
2023/08/25 03:20:51;;;;;;;47.63;20.27;;;19.20;99.90;;;;;;5038808;28;20078;-72
2023/08/25 03:23:16;;;;;;;50.28;20.52;;;19.30;99.90;;;;;;5037636;28;20049;-73
2023/08/25 03:25:42;;;;;;;48.97;21.17;;;19.20;99.90;;;;;;5021726;28;20044;-72
2023/08/25 03:28:07;;;;;;;48.22;21.70;;;19.30;99.90;;;;;;5036534;28;20033;-71
2023/08/25 03:30:33;;;;;;;44.80;19.30;;;19.30;99.90;;;;;;5039621;28;20033;-72
2023/08/25 03:32:58;;;;;;;46.03;20.48;;;19.30;99.90;;;;;;5037118;28;20057;-72
2023/08/25 03:35:24;;;;;;;44.42;20.13;;;19.30;99.90;;;;;;5038871;28;20504;-73
2023/08/25 03:37:49;;;;;;;49.38;20.45;;;19.30;99.90;;;;;;5037445;28;20829;-72
2023/08/25 03:40:19;;;;;;;46.83;20.45;;;19.30;99.90;;;;;;5037527;28;20382;-72
2023/08/25 03:42:44;;;;;;;42.58;20.63;;;19.30;99.90;;;;;;5038609;28;20063;-73
2023/08/25 03:45:10;;;;;;;45.22;20.88;;;19.30;99.90;;;;;;5036328;28;20030;-73
2023/08/25 03:47:35;;;;;;;50.13;20.85;;;19.30;99.90;;;;;;5021877;28;20040;-74
2023/08/25 03:50:01;;;;;;;46.60;21.30;;;19.40;99.90;;;;;;5017832;28;20552;-72
2023/08/25 03:52:27;;;;;;;45.80;19.50;;;19.40;99.90;;;;;;5039686;28;20049;-74
2023/08/25 03:54:52;;;;;;;42.78;20.27;;;19.40;99.90;;;;;;5037632;28;20444;-72
2023/08/25 03:57:18;;;;;;;37.58;19.10;;;19.40;99.90;;;;;;5036228;28;20068;-72
2023/08/25 03:59:43;;;;;;;44.45;19.80;;;19.40;99.90;;;;;;5037529;28;20033;-72
2023/08/25 04:02:09;;;;;;;41.88;20.10;;;19.40;99.90;;;;;;5026868;28;20392;-72
2023/08/25 04:04:35;;;;;;;45.50;19.73;;;19.40;99.90;;;;;;5039360;28;20132;-72
2023/08/25 04:07:00;;;;;;;44.70;20.63;;;19.50;99.90;;;;;;5026225;28;20033;-73
2023/08/25 04:09:26;;;;;;;39.50;19.05;;;19.40;99.90;;;;;;5039181;28;20037;-74
2023/08/25 04:11:53;;;;;;;42.58;18.88;;;19.40;99.90;;;;;;5036523;28;20045;-72
2023/08/25 04:14:18;;;;;;;41.65;19.85;;;19.40;99.90;;;;;;5038364;28;20033;-72
2023/08/25 04:16:44;;;;;;;46.83;21.10;;;19.40;99.90;;;;;;5039045;28;20399;-72
2023/08/25 04:19:10;;;;;;;38.58;19.17;;;19.50;99.90;;;;;;5042187;28;20025;-71
2023/08/25 04:21:35;;;;;;;41.63;19.90;;;19.40;99.90;;;;;;5040068;28;20486;-73
2023/08/25 04:24:01;;;;;;;44.58;19.95;;;19.50;99.90;;;;;;5042309;28;20038;-73
2023/08/25 04:26:26;;;;;;;39.85;19.45;;;19.50;99.90;;;;;;5042149;28;20033;-74
2023/08/25 04:28:52;;;;;;;37.92;17.13;;;19.50;99.90;;;;;;5042346;28;20041;-74
2023/08/25 04:31:17;;;;;;;36.65;17.42;;;19.50;99.90;;;;;;5041815;28;20037;-73
2023/08/25 04:33:43;;;;;;;41.83;18.88;;;19.50;99.90;;;;;;5041969;28;20032;-73
2023/08/25 04:36:09;;;;;;;39.63;19.00;;;19.50;99.90;;;;;;5040061;28;20045;-72
2023/08/25 04:38:34;;;;;;;36.08;17.30;;;19.50;99.90;;;;;;5043203;28;20060;-73
2023/08/25 04:41:00;;;;;;;40.08;19.15;;;19.50;99.90;;;;;;5039293;28;20527;-73
2023/08/25 04:43:25;;;;;;;36.67;18.45;;;19.50;99.90;;;;;;5033121;28;20507;-72
2023/08/25 04:45:51;;;;;;;43.40;19.65;;;19.50;99.90;;;;;;5030254;28;20029;-73
2023/08/25 04:48:17;;;;;;;40.08;18.88;;;19.50;99.90;;;;;;5041790;28;20033;-72
2023/08/25 04:50:43;;;;;;;45.63;18.90;;;19.50;99.90;;;;;;5041029;28;20044;-72
2023/08/25 04:53:08;;;;;;;42.67;18.13;;;19.50;99.90;;;;;;5028070;28;20451;-72
2023/08/25 04:55:34;;;;;;;40.75;17.92;;;19.50;99.90;;;;;;5039066;28;20059;-74
2023/08/25 04:58:00;;;;;;;40.20;18.10;;;19.50;99.90;;;;;;5041384;28;20041;-72
2023/08/25 05:00:25;;;;;;;38.65;17.95;;;19.50;99.90;;;;;;5021874;28;20048;-71
2023/08/25 05:02:52;;;;;;;39.45;17.58;;;19.50;99.90;;;;;;5041054;28;20037;-72
2023/08/25 05:05:18;;;;;;;36.60;17.23;;;19.60;99.90;;;;;;5020701;28;20029;-74
2023/08/25 05:07:43;;;;;;;38.33;18.05;;;19.60;99.90;;;;;;5041059;28;20059;-73
2023/08/25 05:10:09;;;;;;;41.05;17.67;;;19.60;99.90;;;;;;5021634;28;20132;-72
2023/08/25 05:12:35;;;;;;;41.47;16.60;;;19.60;99.90;;;;;;5041737;28;20036;-72
2023/08/25 05:15:02;;;;;;;40.80;17.92;;;19.60;99.90;;;;;;5021298;28;20037;-74
2023/08/25 05:17:28;;;;;;;39.97;17.65;;;19.60;99.90;;;;;;5039423;28;20117;-74
2023/08/25 05:19:53;;;;;;;37.47;16.50;;;19.60;99.90;;;;;;5040470;28;20112;-73
2023/08/25 05:22:19;;;;;;;37.08;16.63;;;19.60;99.90;;;;;;5040433;28;20399;-72
2023/08/25 05:24:45;;;;;;;41.97;18.35;;;19.70;99.90;;;;;;5031431;28;20061;-73
2023/08/25 05:27:10;;;;;;;37.45;15.90;;;19.60;99.90;;;;;;5030949;28;20037;-71
2023/08/25 05:29:36;;;;;;;34.72;15.75;;;19.70;99.90;;;;;;5038910;28;20033;-74
2023/08/25 05:32:02;;;;;;;41.72;17.05;;;19.70;99.90;;;;;;5031840;28;20108;-72
2023/08/25 05:34:28;;;;;;;38.05;17.48;;;19.70;99.90;;;;;;5029332;28;20485;-72
2023/08/25 05:36:55;;;;;;;40.03;17.02;;;19.70;99.90;;;;;;5040934;28;20029;-73
2023/08/25 05:39:21;;;;;;;35.05;15.32;;;19.70;99.90;;;;;;5039710;28;20037;-72
2023/08/25 05:41:47;;;;;;;42.85;17.27;;;19.70;99.90;;;;;;5040218;28;20037;-71
2023/08/25 05:44:12;;;;;;;40.63;17.88;;;19.70;99.90;;;;;;5040475;28;20040;-72
2023/08/25 05:46:39;;;;;;;43.38;17.58;;;19.70;99.90;;;;;;5039065;28;20064;-72
2023/08/25 05:49:05;;;;;;;32.92;15.18;;;19.70;99.90;;;;;;5031334;28;20493;-72
2023/08/25 05:51:31;;;;;;;40.78;18.25;;;19.70;99.90;;;;;;5038356;28;20029;-72
2023/08/25 05:53:56;;;;;;;39.05;16.75;;;19.80;99.90;;;;;;5039878;28;20037;-71
2023/08/25 05:56:22;;;;;;;38.55;17.20;;;19.80;99.90;;;;;;5032093;28;20041;-72
2023/08/25 05:58:48;;;;;;;42.75;18.95;;;19.80;99.90;;;;;;5038933;28;20021;-74
2023/08/25 06:01:13;;;;;;;39.90;17.67;;;19.80;99.90;;;;;;5040248;28;20397;-71
2023/08/25 06:03:39;;;;;;;37.60;16.98;;;19.80;99.90;;;;;;5040195;28;20033;-72
2023/08/25 06:06:05;;;;;;;42.83;17.63;;;19.80;99.90;;;;;;5038715;28;20034;-72
2023/08/25 06:08:31;;;;;;;49.22;19.00;;;19.80;99.90;;;;;;5042042;28;20388;-72
2023/08/25 06:10:57;;;;;;;43.30;18.10;;;19.90;99.90;;;;;;5037668;28;20029;-71
2023/08/25 06:13:23;;;;;;;39.72;17.40;;;19.90;99.90;;;;;;5041344;28;20039;-72
2023/08/25 06:15:49;;;;;;;38.95;17.45;;;19.90;99.90;;;;;;5028186;28;20044;-72
2023/08/25 06:18:15;;;;;;;41.45;18.23;;;19.90;99.90;;;;;;5040406;28;20030;-72
2023/08/25 06:20:40;;;;;;;40.03;18.17;;;20.00;99.90;;;;;;5039462;28;20044;-72
2023/08/25 06:23:06;;;;;;;35.47;17.50;;;20.00;99.90;;;;;;5038825;28;20220;-71
2023/08/25 06:25:32;;;;;;;43.10;17.88;;;20.00;99.90;;;;;;5089535;23;20033;-72
2023/08/25 06:27:57;;;;;;;32.67;15.73;;;20.00;99.90;;;;;;4937833;28;20363;-70
2023/08/25 06:30:25;;;;;;;33.47;15.90;;;20.10;99.90;;;;;;5005140;28;20035;-70
2023/08/25 06:32:52;;;;;;;34.25;16.63;;;20.10;99.90;;;;;;4937585;28;20090;-71
2023/08/25 06:35:18;;;;;;;41.55;17.50;;;20.10;99.90;;;;;;4945974;28;20035;-69
2023/08/25 06:37:43;;;;;;;39.10;17.48;;;20.20;99.90;;;;;;5007398;28;20032;-71
2023/08/25 06:40:09;;;;;;;38.60;17.42;;;20.10;99.90;;;;;;5002211;28;20423;-70
2023/08/25 06:42:35;;;;;;;37.90;17.00;;;20.20;99.90;;;;;;4942363;28;20037;-71
2023/08/25 06:45:01;;;;;;;34.97;16.00;;;20.30;99.90;;;;;;5005157;28;20567;-71
2023/08/25 06:47:27;;;;;;;35.08;15.73;;;20.30;99.90;;;;;;4936975;28;20063;-70
2023/08/25 06:49:54;;;;;;;36.15;16.45;;;20.30;99.90;;;;;;5005450;28;20122;-70
2023/08/25 06:52:20;;;;;;;37.70;15.85;;;20.40;99.90;;;;;;4945336;28;20066;-71
2023/08/25 06:54:46;;;;;;;32.55;14.95;;;20.40;99.90;;;;;;5007304;28;20146;-72
2023/08/25 06:57:11;;;;;;;35.28;16.15;;;20.50;99.90;;;;;;5006321;28;20115;-71
2023/08/25 06:59:37;;;;;;;34.85;15.10;;;20.60;99.90;;;;;;4941672;28;20036;-71
2023/08/25 07:02:03;;;;;;;30.77;14.45;;;20.70;99.90;;;;;;4932805;28;20445;-69
2023/08/25 07:04:29;;;;;;;33.42;15.80;;;20.80;99.90;;;;;;4944014;28;20476;-70
2023/08/25 07:06:55;;;;;;;30.80;15.15;;;20.90;99.90;;;;;;4939093;28;20052;-70
2023/08/25 07:09:20;;;;;;;30.38;14.30;;;21.00;99.90;;;;;;4940590;28;20035;-71
2023/08/25 07:11:46;;;;;;;30.38;13.57;;;21.10;99.90;;;;;;5006215;28;20402;-70
2023/08/25 07:14:11;;;;;;;27.50;13.95;;;21.10;99.90;;;;;;5004195;28;20185;-70
2023/08/25 07:16:37;;;;;;;31.33;15.30;;;21.10;99.90;;;;;;5002565;28;20054;-70
2023/08/25 07:19:02;;;;;;;31.88;13.90;;;21.10;99.90;;;;;;4939527;28;20024;-69
2023/08/25 07:21:29;;;;;;;31.33;15.35;;;21.00;99.90;;;;;;4945536;28;20677;-70
2023/08/25 07:23:55;;;;;;;25.02;12.77;;;21.00;99.90;;;;;;4959662;28;20035;-71
2023/08/25 07:26:21;;;;;;;39.28;15.38;;;20.90;99.90;;;;;;4946881;28;20066;-70
2023/08/25 07:28:47;;;;;;;29.10;14.20;;;20.90;99.90;;;;;;5017505;28;20055;-70
2023/08/25 07:31:12;;;;;;;29.45;15.05;;;20.90;99.90;;;;;;5005768;28;20035;-71
2023/08/25 07:33:38;;;;;;;27.38;13.65;;;20.90;99.90;;;;;;4936186;28;20567;-70
2023/08/25 07:36:04;;;;;;;28.73;12.98;;;20.90;99.90;;;;;;5002438;28;20135;-70
2023/08/25 07:38:30;;;;;;;32.30;14.07;;;20.90;99.90;;;;;;5000728;28;20111;-69
2023/08/25 07:40:56;;;;;;;26.50;12.38;;;20.90;99.90;;;;;;5000708;28;20484;-70
2023/08/25 07:43:22;;;;;;;30.83;14.65;;;20.90;99.90;;;;;;5004265;28;20042;-70
2023/08/25 07:45:48;;;;;;;25.73;13.60;;;20.90;99.90;;;;;;4994026;28;20031;-69
2023/08/25 07:48:14;;;;;;;25.38;13.52;;;21.00;99.90;;;;;;4935768;28;20101;-71
2023/08/25 07:50:40;;;;;;;24.75;12.73;;;21.10;99.90;;;;;;5008024;28;20048;-71
2023/08/25 07:53:05;;;;;;;25.40;12.82;;;21.10;99.90;;;;;;4933357;28;20051;-70
2023/08/25 07:55:32;;;;;;;31.00;14.48;;;21.20;99.90;;;;;;4999574;28;20089;-72
2023/08/25 07:57:59;;;;;;;27.13;13.63;;;21.40;99.90;;;;;;4936539;28;20087;-72
2023/08/25 08:00:26;;;;;;;31.27;14.02;;;21.50;99.90;;;;;;4941059;28;20084;-72
2023/08/25 08:02:52;;;;;;;24.65;12.50;;;21.60;99.90;;;;;;5004813;28;20046;-70
2023/08/25 08:05:18;;;;;;;25.23;11.43;;;21.70;99.90;;;;;;4944360;28;20039;-70
2023/08/25 08:07:50;;;;;;;23.92;12.68;;;21.80;99.90;;;;;;5005016;28;20515;-71
2023/08/25 08:10:16;;;;;;;29.35;13.40;;;22.00;99.90;;;;;;5001029;28;20039;-73
2023/08/25 08:12:42;;;;;;;25.50;12.68;;;22.30;99.90;;;;;;4998433;28;20043;-71
2023/08/25 08:15:08;;;;;;;24.08;12.10;;;22.50;99.90;;;;;;4936650;28;20039;-72
2023/08/25 08:17:34;;;;;;;22.73;11.77;;;22.70;99.90;;;;;;4941926;28;20066;-71
2023/08/25 08:20:00;;;;;;;23.58;11.27;;;22.80;99.90;;;;;;4939838;28;20475;-72
2023/08/25 08:22:27;;;;;;;20.13;12.02;;;22.90;99.90;;;;;;4943834;28;20054;-70
2023/08/25 08:24:53;;;;;;;26.38;11.55;;;23.00;99.90;;;;;;4932263;28;20115;-70
2023/08/25 08:27:19;;;;;;;24.48;11.93;;;23.10;99.90;;;;;;4939963;28;20170;-70
2023/08/25 08:29:46;;;;;;;23.65;12.15;;;23.00;99.90;;;;;;4931510;28;20042;-71
2023/08/25 08:32:13;;;;;;;19.77;10.32;;;22.90;99.90;;;;;;5006512;28;20043;-70
2023/08/25 08:34:38;;;;;;;19.77;11.25;;;22.80;99.90;;;;;;4942607;28;20048;-71
2023/08/25 08:37:07;;;;;;;26.10;12.77;;;22.70;99.90;;;;;;4933900;28;20042;-70
2023/08/25 08:39:33;;;;;;;21.13;10.55;;;22.60;99.90;;;;;;4927295;28;20032;-72
2023/08/25 08:42:03;;;;;;;23.90;11.38;;;22.50;99.90;;;;;;4936168;28;20059;-73
2023/08/25 08:44:35;;;;;;;22.02;11.50;;;22.40;99.90;;;;;;4937052;28;20438;-71
2023/08/25 08:47:01;;;;;;;21.92;11.77;;;22.30;99.90;;;;;;4943485;28;20031;-71
2023/08/25 08:49:27;;;;;;;21.40;11.48;;;22.30;99.90;;;;;;4932181;28;20114;-70
2023/08/25 08:51:55;;;;;;;20.60;11.77;;;22.30;99.90;;;;;;4931846;28;20088;-70
2023/08/25 08:54:24;;;;;;;21.13;11.80;;;22.40;99.90;;;;;;5003596;28;20479;-71
2023/08/25 08:56:51;;;;;;;20.80;10.52;;;22.40;99.90;;;;;;4934972;28;20035;-69
2023/08/25 08:59:17;;;;;;;20.05;10.00;;;22.50;99.90;;;;;;5001561;28;20492;-71
2023/08/25 09:01:43;;;;;;;16.40;9.93;;;22.60;99.90;;;;;;4930335;28;20094;-70
2023/08/25 09:04:09;;;;;;;21.70;11.48;;;22.60;99.90;;;;;;4936975;28;20032;-72
2023/08/25 09:06:37;;;;;;;24.42;12.55;;;22.70;99.90;;;;;;5006702;28;20115;-72
2023/08/25 09:09:05;;;;;;;21.50;11.18;;;22.80;99.90;;;;;;4938720;28;20055;-71
2023/08/25 09:11:32;;;;;;;27.13;11.95;;;22.80;99.90;;;;;;5007991;28;20114;-71
2023/08/25 09:14:03;;;;;;;21.02;11.15;;;22.90;99.90;;;;;;4940756;28;20142;-70
2023/08/25 09:16:34;;;;;;;24.67;11.75;;;23.10;99.90;;;;;;4947297;28;20151;-71
2023/08/25 09:19:02;;;;;;;28.85;12.73;;;23.30;99.90;;;;;;5001537;28;20031;-71
2023/08/25 09:21:28;;;;;;;22.88;11.75;;;23.60;99.90;;;;;;5006956;28;20039;-71
2023/08/25 09:23:59;;;;;;;20.35;10.82;;;23.50;99.90;;;;;;4931378;28;20067;-72
2023/08/25 09:26:25;;;;;;;26.58;12.13;;;23.40;99.90;;;;;;5015513;28;20039;-70
2023/08/25 09:28:53;;;;;;;21.73;12.10;;;23.20;99.90;;;;;;4938763;28;20032;-70
2023/08/25 09:31:28;;;;;;;20.88;11.57;;;23.00;99.90;;;;;;5008149;28;20146;-70
2023/08/25 09:34:02;;;;;;;21.10;11.48;;;22.90;99.90;;;;;;4939272;28;20051;-71
2023/08/25 09:36:28;;;;;;;21.85;12.27;;;22.70;99.90;;;;;;5007605;28;20028;-70
2023/08/25 09:38:54;;;;;;;20.05;11.57;;;22.60;99.90;;;;;;5002902;28;20419;-73
2023/08/25 09:41:24;;;;;;;22.10;12.35;;;22.60;99.90;;;;;;4941821;28;20093;-71
2023/08/25 09:43:50;;;;;;;24.60;12.25;;;22.70;99.90;;;;;;4935230;28;20043;-70
2023/08/25 09:46:16;;;;;;;20.63;11.05;;;22.80;99.90;;;;;;4999539;28;20122;-70
2023/08/25 09:48:45;;;;;;;20.13;11.43;;;23.00;99.90;;;;;;5003218;28;20142;-69
2023/08/25 09:51:11;;;;;;;26.60;11.57;;;23.10;99.90;;;;;;4942795;28;20036;-72
2023/08/25 09:53:39;;;;;;;24.30;11.73;;;23.10;99.90;;;;;;5010487;28;20532;-70
2023/08/25 09:56:08;;;;;;;23.23;12.02;;;23.20;99.90;;;;;;5001099;28;20399;-70
2023/08/25 09:58:34;;;;;;;24.13;11.57;;;23.20;99.90;;;;;;5004710;28;20119;-70
2023/08/25 10:01:00;;;;;;;24.88;12.85;;;23.20;99.90;;;;;;4943249;28;20153;-73
2023/08/25 10:03:26;;;;;;;21.42;11.18;;;23.20;99.90;;;;;;4995628;28;20039;-72
2023/08/25 10:05:52;;;;;;;25.05;12.50;;;23.10;99.90;;;;;;4938508;28;20047;-71
2023/08/25 10:08:18;;;;;;;23.70;11.23;;;23.20;99.90;;;;;;5002707;28;20035;-71
2023/08/25 10:10:45;;;;;;;22.08;11.13;;;23.10;99.90;;;;;;4994599;28;20040;-72
2023/08/25 10:13:14;;;;;;;21.13;11.70;;;23.10;99.90;;;;;;5003156;28;20067;-71
2023/08/25 10:15:42;;;;;;;26.38;10.70;;;23.00;99.90;;;;;;5006317;28;20039;-71
2023/08/25 10:18:08;;;;;;;19.50;11.35;;;22.90;99.90;;;;;;4949863;28;20102;-72
2023/08/25 10:20:35;;;;;;;17.13;10.52;;;22.80;99.90;;;;;;5011072;28;20046;-72
2023/08/25 10:23:05;;;;;;;28.05;11.35;;;22.70;99.90;;;;;;4942005;28;20084;-72
2023/08/25 10:25:31;;;;;;;21.83;11.10;;;22.70;99.90;;;;;;4939477;28;20039;-71
2023/08/25 10:27:59;;;;;;;24.25;11.07;;;22.60;99.90;;;;;;4947197;28;20953;-71
2023/08/25 10:30:26;;;;;;;28.63;11.70;;;22.60;99.90;;;;;;4936249;28;20174;-71
2023/08/25 10:33:09;;;;;;;20.17;10.80;;;22.60;99.90;;;;;;4944708;28;20055;-73
2023/08/25 10:35:46;;;;;;;19.70;10.60;;;22.60;99.90;;;;;;4943495;28;20461;-71
2023/08/25 10:38:18;;;;;;;19.95;10.25;;;22.60;99.90;;;;;;5007474;28;20047;-72
2023/08/25 10:40:51;;;;;;;22.25;11.88;;;22.60;99.90;;;;;;4929852;28;20046;-71
2023/08/25 10:43:29;;;;;;;27.77;10.50;;;22.60;99.90;;;;;;5010864;28;20063;-70
2023/08/25 10:45:54;;;;;;;23.92;10.07;;;22.60;99.90;;;;;;4943203;28;20173;-72
2023/08/25 10:48:24;;;;;;;24.60;10.38;;;22.50;99.90;;;;;;5014377;28;21849;-71
2023/08/25 10:50:52;;;;;;;22.17;9.73;;;22.50;99.90;;;;;;5009422;28;20579;-71
2023/08/25 10:53:37;;;;;;;20.83;11.20;;;22.60;99.90;;;;;;4956861;28;20043;-73
2023/08/25 10:56:18;;;;;;;16.83;9.20;;;22.60;99.90;;;;;;4937498;28;20402;-71
2023/08/25 10:59:03;;;;;;;25.35;10.10;;;22.90;99.90;;;;;;4949178;28;20138;-71
2023/08/25 11:01:38;;;;;;;21.92;10.07;;;23.10;99.90;;;;;;4938105;28;20062;-72
2023/08/25 11:04:21;;;;;;;17.48;9.55;;;23.10;99.90;;;;;;5006263;28;20054;-72
2023/08/25 11:06:51;;;;;;;18.77;10.05;;;23.20;99.90;;;;;;5006733;28;20027;-71
2023/08/25 11:09:23;;;;;;;16.13;9.85;;;23.20;99.90;;;;;;4943924;28;20039;-73
2023/08/25 11:11:56;;;;;;;16.60;8.05;;;23.30;99.90;;;;;;5002702;28;20044;-73
2023/08/25 11:14:27;;;;;;;21.80;8.63;;;23.60;99.90;;;;;;4935490;28;20046;-71
2023/08/25 11:16:53;;;;;;;17.50;9.25;;;23.70;99.90;;;;;;4946149;28;20046;-73
2023/08/25 11:19:19;;;;;;;18.88;8.82;;;23.80;99.90;;;;;;4940217;28;20028;-71
2023/08/25 11:21:54;;;;;;;18.13;10.27;;;24.00;99.90;;;;;;4937478;28;20047;-70
2023/08/25 11:24:23;;;;;;;17.35;9.15;;;24.20;99.90;;;;;;4996707;28;20098;-70
2023/08/25 11:26:48;;;;;;;17.90;10.35;;;24.40;99.90;;;;;;4929599;28;20044;-69
2023/08/25 11:29:14;;;;;;;18.60;10.75;;;24.50;99.90;;;;;;4932972;28;20487;-71
2023/08/25 11:31:43;;;;;;;17.92;10.90;;;24.40;99.90;;;;;;4940265;28;20059;-74
2023/08/25 11:34:09;;;;;;;15.02;7.90;;;24.30;99.90;;;;;;5009730;28;20573;-71
2023/08/25 11:36:36;;;;;;;17.10;9.15;;;24.30;99.90;;;;;;4941670;28;20035;-72
2023/08/25 11:39:01;;;;;;;19.80;9.27;;;24.20;99.90;;;;;;4950660;28;20061;-72
2023/08/25 11:41:28;;;;;;;14.30;7.90;;;24.20;99.90;;;;;;5031390;28;20031;-72
2023/08/25 11:43:55;;;;;;;13.40;8.52;;;24.30;99.90;;;;;;4960220;28;20032;-71
2023/08/25 11:46:21;;;;;;;20.83;10.02;;;24.50;99.90;;;;;;5010715;28;20039;-71
2023/08/25 11:48:48;;;;;;;15.30;8.77;;;24.80;99.90;;;;;;4937747;28;20035;-72
2023/08/25 11:51:15;;;;;;;20.27;10.68;;;24.80;99.90;;;;;;4998966;28;20372;-72
2023/08/25 11:53:42;;;;;;;22.10;10.10;;;24.90;99.90;;;;;;4938220;28;20039;-71
2023/08/25 11:56:13;;;;;;;19.50;11.63;;;24.80;99.90;;;;;;5005101;28;20039;-72
2023/08/25 11:58:39;;;;;;;19.63;11.75;;;24.80;99.90;;;;;;4934543;28;20085;-70
2023/08/25 12:01:10;;;;;;;15.40;10.10;;;24.80;99.90;;;;;;4935885;28;20505;-72
2023/08/25 12:03:37;;;;;;;17.63;11.38;;;24.80;99.90;;;;;;4998097;28;20040;-72
2023/08/25 12:06:05;;;;;;;18.88;10.15;;;24.90;99.90;;;;;;4939603;28;20418;-71
2023/08/25 12:08:31;;;;;;;18.08;9.52;;;24.80;99.90;;;;;;4998828;28;20085;-72
2023/08/25 12:10:56;;;;;;;16.38;9.60;;;24.60;99.90;;;;;;4938168;28;20509;-72
2023/08/25 12:13:29;;;;;;;18.45;9.45;;;24.50;99.90;;;;;;5013402;28;20051;-72
2023/08/25 12:15:55;;;;;;;18.90;10.00;;;24.30;99.90;;;;;;5008732;28;20040;-71
2023/08/25 12:18:22;;;;;;;17.88;9.45;;;24.10;99.90;;;;;;4940567;28;20043;-71
2023/08/25 12:20:48;;;;;;;17.95;10.05;;;24.00;99.90;;;;;;5012982;28;20035;-72
2023/08/25 12:23:14;;;;;;;18.35;9.63;;;23.80;99.90;;;;;;5001046;28;20039;-71
2023/08/25 12:25:43;;;;;;;18.98;10.05;;;23.70;99.90;;;;;;4931544;28;20044;-70
2023/08/25 12:28:10;;;;;;;18.63;11.37;;;23.60;99.90;;;;;;5163361;23;20052;-72